createdAt,value
2023-11-20T00:00:53.629Z,20.58
2023-11-20T00:03:21.913Z,35.70
2023-11-20T00:05:49.632Z,22.27
2023-11-20T00:08:17.221Z,23.20
2023-11-20T00:10:46.150Z,20.55
2023-11-20T00:13:13.725Z,31.45
2023-11-20T00:15:41.430Z,28.60
2023-11-20T00:18:09.652Z,22.20
2023-11-20T00:20:38.744Z,22.43
2023-11-20T00:23:06.537Z,19.17
2023-11-20T00:25:34.211Z,12.35
2023-11-20T00:28:03.629Z,5.65
2023-11-20T00:30:31.352Z,5.75
2023-11-20T00:32:59.673Z,4.22
2023-11-20T00:35:27.332Z,5.40
2023-11-20T00:37:57.062Z,5.93
2023-11-20T00:40:24.674Z,4.78
2023-11-20T00:42:52.430Z,4.35
2023-11-20T00:45:21.454Z,10.60
2023-11-20T00:47:49.094Z,3.63
2023-11-20T00:50:16.826Z,3.60
2023-11-20T00:52:45.730Z,3.63
2023-11-20T00:55:13.417Z,4.13
2023-11-20T00:57:41.896Z,3.15
2023-11-20T01:00:12.805Z,3.22
2023-11-20T01:02:42.326Z,3.92
2023-11-20T01:05:10.645Z,3.30
2023-11-20T01:07:38.307Z,3.88
2023-11-20T01:10:07.129Z,3.72
2023-11-20T01:12:34.738Z,3.58
2023-11-20T01:15:04.273Z,3.58
2023-11-20T01:17:32.405Z,3.38
2023-11-20T01:20:01.382Z,4.93
2023-11-20T01:22:28.973Z,3.95
2023-11-20T01:24:56.553Z,5.28
2023-11-20T01:27:24.254Z,4.15
2023-11-20T01:29:52.237Z,3.85
2023-11-20T01:32:19.838Z,3.90
2023-11-20T01:34:47.417Z,5.60
2023-11-20T01:37:16.438Z,4.10
2023-11-20T01:39:44.097Z,3.67
2023-11-20T01:42:11.808Z,3.53
2023-11-20T01:44:39.399Z,4.35
2023-11-20T01:47:07.806Z,4.25
2023-11-20T01:49:35.468Z,3.90
2023-11-20T01:52:04.072Z,4.22
2023-11-20T01:54:34.232Z,7.07
2023-11-20T01:57:03.349Z,3.38
2023-11-20T01:59:32.076Z,3.50
2023-11-20T02:02:00.093Z,3.60
2023-11-20T02:04:29.675Z,4.78
2023-11-20T02:06:57.298Z,4.15
2023-11-20T02:09:24.936Z,4.35
2023-11-20T02:11:54.092Z,4.68
2023-11-20T02:14:21.735Z,6.57
2023-11-20T02:16:49.498Z,6.53
2023-11-20T02:19:17.869Z,8.57
2023-11-20T02:21:46.035Z,9.20
2023-11-20T02:24:14.684Z,13.32
2023-11-20T02:26:52.701Z,9.68
2023-11-20T02:29:26.932Z,8.50
2023-11-20T02:31:55.883Z,11.25
2023-11-20T02:34:23.710Z,8.45
2023-11-20T02:36:51.387Z,9.95
2023-11-20T02:39:19.172Z,7.95
2023-11-20T02:41:46.808Z,7.32
2023-11-20T02:44:14.558Z,9.25
2023-11-20T02:46:44.289Z,9.10
2023-11-20T02:49:13.351Z,8.05
2023-11-20T02:51:41.267Z,8.18
2023-11-20T02:54:08.960Z,8.77
2023-11-20T02:56:36.546Z,8.52
2023-11-20T02:59:04.583Z,9.77
2023-11-20T03:01:32.396Z,8.98
2023-11-20T03:04:00.128Z,9.82
2023-11-20T03:06:29.176Z,7.10
2023-11-20T03:08:56.818Z,6.78
2023-11-20T03:11:24.425Z,8.30
2023-11-20T03:13:51.971Z,6.78
2023-11-20T03:16:19.668Z,6.68
2023-11-20T03:18:47.512Z,6.55
2023-11-20T03:21:15.106Z,6.25
2023-11-20T03:23:44.070Z,6.82
2023-11-20T03:26:11.722Z,5.53
2023-11-20T03:28:40.227Z,5.95
2023-11-20T03:31:07.899Z,5.70
2023-11-20T03:33:35.576Z,6.85
2023-11-20T03:36:03.352Z,5.65
2023-11-20T03:38:30.959Z,5.68
2023-11-20T03:40:59.898Z,6.18
2023-11-20T03:43:29.392Z,6.55
2023-11-20T03:45:57.887Z,8.15
2023-11-20T03:48:25.514Z,7.53
2023-11-20T03:50:53.081Z,6.57
2023-11-20T03:53:20.860Z,6.13
2023-11-20T03:55:48.475Z,7.60
2023-11-20T03:58:18.151Z,5.90
2023-11-20T04:00:45.747Z,5.85
2023-11-20T04:03:13.856Z,9.27
2023-11-20T04:05:42.844Z,5.32
2023-11-20T04:08:10.763Z,8.40
2023-11-20T04:10:39.636Z,7.05
2023-11-20T04:13:08.283Z,5.97
2023-11-20T04:15:37.330Z,6.80
2023-11-20T04:18:05.006Z,7.10
2023-11-20T04:20:33.113Z,5.90
2023-11-20T04:23:01.134Z,6.22
2023-11-20T04:25:28.689Z,7.15
2023-11-20T04:27:56.334Z,5.65
2023-11-20T04:30:24.229Z,5.80
2023-11-20T04:32:53.177Z,6.28
2023-11-20T04:35:21.161Z,6.20
2023-11-20T04:37:48.743Z,6.20
2023-11-20T04:40:16.390Z,6.32
2023-11-20T04:42:45.270Z,6.93
2023-11-20T04:45:13.565Z,6.78
2023-11-20T04:47:41.716Z,7.20
2023-11-20T04:50:11.334Z,7.13
2023-11-20T04:52:39.035Z,5.82
2023-11-20T04:55:07.772Z,6.00
2023-11-20T04:57:36.299Z,6.40
2023-11-20T05:00:05.611Z,6.22
2023-11-20T05:02:33.309Z,6.10
2023-11-20T05:05:00.889Z,6.15
2023-11-20T05:07:30.414Z,6.53
2023-11-20T05:09:58.473Z,6.35
2023-11-20T05:12:28.248Z,6.38
2023-11-20T05:14:57.200Z,5.90
2023-11-20T05:17:24.738Z,6.57
2023-11-20T05:19:52.313Z,6.63
2023-11-20T05:22:19.968Z,6.65
2023-11-20T05:24:49.045Z,6.57
2023-11-20T05:27:16.682Z,6.53
2023-11-20T05:29:44.238Z,6.45
2023-11-20T05:32:11.864Z,7.50
2023-11-20T05:34:39.789Z,6.30
2023-11-20T05:37:07.575Z,7.60
2023-11-20T05:39:35.259Z,5.88
2023-11-20T05:42:04.464Z,7.32
2023-11-20T05:44:32.262Z,6.20
2023-11-20T05:46:59.872Z,6.22
2023-11-20T05:49:27.510Z,6.53
2023-11-20T05:51:55.148Z,6.85
2023-11-20T05:54:22.768Z,6.85
2023-11-20T05:56:50.354Z,6.35
2023-11-20T05:59:19.260Z,6.35
2023-11-20T06:01:46.914Z,5.50
2023-11-20T06:04:15.657Z,5.70
2023-11-20T06:06:43.327Z,5.00
2023-11-20T06:09:11.622Z,5.20
2023-11-20T06:11:39.407Z,4.85
2023-11-20T06:14:07.036Z,4.45
2023-11-20T06:16:35.967Z,4.53
2023-11-20T06:19:03.573Z,4.20
2023-11-20T06:21:31.192Z,4.47
2023-11-20T06:23:58.736Z,5.20
2023-11-20T06:26:27.107Z,4.13
2023-11-20T06:28:54.687Z,4.20
2023-11-20T06:31:22.337Z,4.25
2023-11-20T06:33:51.360Z,5.00
2023-11-20T06:36:18.936Z,4.43
2023-11-20T06:38:46.483Z,5.32
2023-11-20T06:41:18.024Z,5.90
2023-11-20T06:43:45.628Z,6.00
2023-11-20T06:46:17.990Z,5.03
2023-11-20T06:48:45.614Z,5.78
2023-11-20T06:51:14.761Z,6.00
2023-11-20T06:53:42.559Z,5.68
2023-11-20T06:56:17.919Z,4.82
2023-11-20T06:58:45.888Z,5.28
2023-11-20T07:01:14.834Z,5.40
2023-11-20T07:03:44.226Z,6.88
2023-11-20T07:06:14.799Z,7.88
2023-11-20T07:08:42.988Z,5.60
2023-11-20T07:11:10.742Z,4.82
2023-11-20T07:13:38.810Z,7.55
2023-11-20T07:16:07.355Z,12.95
2023-11-20T07:18:35.455Z,12.63
2023-11-20T07:21:03.576Z,11.20
2023-11-20T07:23:33.245Z,12.77
2023-11-20T07:26:00.786Z,14.23
2023-11-20T07:28:28.449Z,13.07
2023-11-20T07:30:56.062Z,13.25
2023-11-20T07:33:23.667Z,11.32
2023-11-20T07:35:52.207Z,10.73
2023-11-20T07:38:20.405Z,13.60
2023-11-20T07:40:49.663Z,14.07
2023-11-20T07:43:20.301Z,15.07
2023-11-20T07:45:48.609Z,15.38
2023-11-20T07:48:16.553Z,14.68
2023-11-20T07:50:44.131Z,16.25
2023-11-20T07:53:11.653Z,14.68
2023-11-20T07:55:39.239Z,15.45
2023-11-20T07:58:08.178Z,13.40
2023-11-20T08:00:35.824Z,15.48
2023-11-20T08:03:03.468Z,14.38
2023-11-20T08:05:35.650Z,15.35
2023-11-20T08:08:08.928Z,23.77
2023-11-20T08:10:36.456Z,10.65
2023-11-20T08:13:04.024Z,13.07
2023-11-20T08:15:33.237Z,15.38
2023-11-20T08:18:00.807Z,15.15
2023-11-20T08:20:30.339Z,16.85
2023-11-20T08:22:58.935Z,14.55
2023-11-20T08:25:26.564Z,15.88
2023-11-20T08:27:54.130Z,22.63
2023-11-20T08:30:21.701Z,16.80
2023-11-20T08:32:50.833Z,16.55
2023-11-20T08:35:18.494Z,17.45
2023-11-20T08:37:46.029Z,15.82
2023-11-20T08:40:15.880Z,19.23
2023-11-20T08:42:43.649Z,18.33
2023-11-20T08:45:11.747Z,20.77
2023-11-20T08:47:40.725Z,22.35
2023-11-20T08:50:11.434Z,20.30
2023-11-20T08:52:39.320Z,24.85
2023-11-20T08:55:08.268Z,25.38
2023-11-20T08:57:36.339Z,20.02
2023-11-20T09:00:05.412Z,18.33
2023-11-20T09:02:33.012Z,18.85
2023-11-20T09:05:00.553Z,10.27
2023-11-20T09:07:29.459Z,8.30
2023-11-20T09:09:57.030Z,6.20
2023-11-20T09:12:24.624Z,9.25
2023-11-20T09:14:52.236Z,7.50
2023-11-20T09:17:20.227Z,12.93
2023-11-20T09:19:47.754Z,14.70
2023-11-20T09:22:15.730Z,11.90
2023-11-20T09:24:52.785Z,11.73
2023-11-20T09:27:24.753Z,8.82
2023-11-20T09:29:52.318Z,7.15
2023-11-20T09:32:19.872Z,9.50
2023-11-20T09:34:47.426Z,8.05
2023-11-20T09:37:15.011Z,11.25
2023-11-20T09:39:47.358Z,12.65
2023-11-20T09:42:16.497Z,14.52
2023-11-20T09:44:47.192Z,6.63
2023-11-20T09:47:16.529Z,9.48
2023-11-20T09:49:46.245Z,9.50
2023-11-20T09:52:14.533Z,9.05
2023-11-20T09:54:44.877Z,13.48
2023-11-20T09:57:13.158Z,14.70
2023-11-20T09:59:40.797Z,6.35
2023-11-20T10:02:08.995Z,8.25
2023-11-20T10:04:37.146Z,7.72
2023-11-20T10:07:09.384Z,9.57
2023-11-20T10:09:37.912Z,12.45
2023-11-20T10:12:11.115Z,10.68
2023-11-20T10:14:38.893Z,9.43
2023-11-20T10:17:08.035Z,8.63
2023-11-20T10:19:36.802Z,5.63
2023-11-20T10:22:06.601Z,10.75
2023-11-20T10:24:34.252Z,8.80
2023-11-20T10:27:01.792Z,14.05
2023-11-20T10:29:30.640Z,13.93
2023-11-20T10:32:03.378Z,6.05
2023-11-20T10:34:32.130Z,6.15
2023-11-20T10:37:10.041Z,6.85
2023-11-20T10:39:38.413Z,5.55
2023-11-20T10:42:06.717Z,8.13
2023-11-20T10:44:37.167Z,6.10
2023-11-20T10:47:06.265Z,7.07
2023-11-20T10:49:35.231Z,5.97
2023-11-20T10:52:06.606Z,6.78
2023-11-20T10:54:41.131Z,8.10
2023-11-20T10:57:10.301Z,9.15
2023-11-20T10:59:40.498Z,12.35
2023-11-20T11:02:18.515Z,10.77
2023-11-20T11:04:47.476Z,13.40
2023-11-20T11:07:16.221Z,10.77
2023-11-20T11:09:45.873Z,16.05
2023-11-20T11:12:14.029Z,14.52
2023-11-20T11:14:42.993Z,18.63
2023-11-20T11:17:15.743Z,15.70
2023-11-20T11:19:48.073Z,25.77
2023-11-20T11:22:28.876Z,26.42
2023-11-20T11:24:59.668Z,34.47
2023-11-20T11:27:38.200Z,27.38
2023-11-20T11:30:11.308Z,34.53
2023-11-20T11:32:57.822Z,30.67
2023-11-20T11:35:44.093Z,25.33
2023-11-20T11:38:23.297Z,24.10
2023-11-20T11:41:11.540Z,24.52
2023-11-20T11:43:46.486Z,26.58
2023-11-20T11:46:15.515Z,27.83
2023-11-20T11:48:43.779Z,24.35
2023-11-20T11:51:20.918Z,23.00
2023-11-20T11:54:14.175Z,22.13
2023-11-20T11:56:58.293Z,21.90
2023-11-20T11:59:39.807Z,24.02
2023-11-20T12:02:10.534Z,22.10
2023-11-20T12:05:05.246Z,21.00
2023-11-20T12:07:49.074Z,23.73
2023-11-20T12:10:17.404Z,23.95
2023-11-20T12:13:09.462Z,22.70
2023-11-20T12:15:39.073Z,23.88
2023-11-20T12:18:14.413Z,23.50
2023-11-20T12:20:46.237Z,22.75
2023-11-20T12:23:21.168Z,22.42
2023-11-20T12:25:49.629Z,20.52
2023-11-20T12:28:17.572Z,22.58
2023-11-20T12:30:46.734Z,20.92
2023-11-20T12:33:15.698Z,28.70
2023-11-20T12:35:43.618Z,29.73
2023-11-20T12:38:11.319Z,30.75
2023-11-20T12:40:38.958Z,24.13
2023-11-20T12:43:06.526Z,22.23
2023-11-20T12:45:35.123Z,22.27
2023-11-20T12:48:02.671Z,23.00
2023-11-20T12:50:32.489Z,23.75
2023-11-20T12:53:01.228Z,27.30
2023-11-20T12:55:29.024Z,27.15
2023-11-20T12:57:56.910Z,29.55
2023-11-20T13:00:24.879Z,34.30
2023-11-20T13:02:57.010Z,32.58
2023-11-20T13:05:25.649Z,37.28
2023-11-20T13:08:00.556Z,31.15
2023-11-20T13:10:29.983Z,31.55
2023-11-20T13:13:05.985Z,28.20
2023-11-20T13:15:35.544Z,27.02
2023-11-20T13:18:03.983Z,25.35
2023-11-20T13:20:41.271Z,28.08
2023-11-20T13:23:26.955Z,26.85
2023-11-20T13:25:56.016Z,30.77
2023-11-20T13:28:28.628Z,19.63
2023-11-20T13:31:05.177Z,16.98
2023-11-20T13:33:33.055Z,27.60
2023-11-20T13:36:02.104Z,18.17
2023-11-20T13:38:32.868Z,29.75
2023-11-20T13:41:01.253Z,24.30
2023-11-20T13:43:29.420Z,18.20
2023-11-20T13:45:58.084Z,15.00
2023-11-20T13:48:26.463Z,15.63
2023-11-20T13:50:54.508Z,11.02
2023-11-20T13:53:23.829Z,11.80
2023-11-20T13:55:54.238Z,11.80
2023-11-20T13:58:25.475Z,7.03
2023-11-20T14:00:54.364Z,10.30
2023-11-20T14:03:22.492Z,9.50
2023-11-20T14:05:51.183Z,12.77
2023-11-20T14:08:19.632Z,12.45
2023-11-20T14:10:52.186Z,10.50
2023-11-20T14:13:21.896Z,9.00
2023-11-20T14:15:51.063Z,5.50
2023-11-20T14:18:18.692Z,4.85
2023-11-20T14:20:46.283Z,5.18
2023-11-20T14:23:13.945Z,6.20
2023-11-20T14:25:51.072Z,4.80
2023-11-20T14:28:30.292Z,7.97
2023-11-20T14:30:58.122Z,5.90
2023-11-20T14:33:25.738Z,3.90
2023-11-20T14:35:55.127Z,3.17
2023-11-20T14:38:22.814Z,3.08
2023-11-20T14:40:50.579Z,3.85
2023-11-20T14:43:19.360Z,3.78
2023-11-20T14:45:48.936Z,22.02
2023-11-20T14:48:17.038Z,24.10
2023-11-20T14:50:44.685Z,24.20
2023-11-20T14:53:12.262Z,12.18
2023-11-20T14:55:40.237Z,9.68
2023-11-20T14:58:07.834Z,7.43
2023-11-20T15:00:35.471Z,5.53
2023-11-20T15:03:04.440Z,5.22
2023-11-20T15:05:32.103Z,4.18
2023-11-20T15:07:59.665Z,3.60
2023-11-20T15:10:29.428Z,4.32
2023-11-20T15:12:58.017Z,4.17
2023-11-20T15:15:25.737Z,5.72
2023-11-20T15:17:53.345Z,3.17
2023-11-20T15:20:23.899Z,3.87
2023-11-20T15:22:52.639Z,15.40
2023-11-20T15:25:20.679Z,9.53
2023-11-20T15:27:48.385Z,11.80
2023-11-20T15:30:17.181Z,10.10
2023-11-20T15:32:45.227Z,11.03
2023-11-20T15:35:13.147Z,19.83
2023-11-20T15:37:42.208Z,13.80
2023-11-20T15:40:10.891Z,16.80
2023-11-20T15:42:38.874Z,14.57
2023-11-20T15:45:07.473Z,8.17
2023-11-20T15:47:35.340Z,7.60
2023-11-20T15:50:03.830Z,9.90
2023-11-20T15:52:31.421Z,12.10
2023-11-20T15:55:01.179Z,15.03
2023-11-20T15:57:29.254Z,12.13
2023-11-20T15:59:59.582Z,11.10
2023-11-20T16:02:29.478Z,18.90
2023-11-20T16:04:57.209Z,40.17
2023-11-20T16:07:24.980Z,47.38
2023-11-20T16:09:52.767Z,24.83
2023-11-20T16:12:22.041Z,25.33
2023-11-20T16:14:49.595Z,34.23
2023-11-20T16:17:17.246Z,32.47
2023-11-20T16:19:44.866Z,35.03
2023-11-20T16:22:12.481Z,33.50
2023-11-20T16:24:40.074Z,27.20
2023-11-20T16:27:07.606Z,27.10
2023-11-20T16:29:37.300Z,25.77
2023-11-20T16:32:05.898Z,24.67
2023-11-20T16:34:33.556Z,17.05
2023-11-20T16:37:01.121Z,19.67
2023-11-20T16:39:28.676Z,30.20
2023-11-20T16:41:56.510Z,32.47
2023-11-20T16:44:24.283Z,36.50
2023-11-20T16:46:54.712Z,56.92
2023-11-20T16:49:22.974Z,56.00
2023-11-20T16:51:50.559Z,51.50
2023-11-20T16:54:18.289Z,54.00
2023-11-20T16:56:45.834Z,65.35
2023-11-20T16:59:14.950Z,64.53
2023-11-20T17:01:43.303Z,63.92
2023-11-20T17:04:13.123Z,66.40
2023-11-20T17:06:40.860Z,55.50
2023-11-20T17:09:08.464Z,47.70
2023-11-20T17:11:36.049Z,52.47
2023-11-20T17:14:04.250Z,42.25
2023-11-20T17:16:32.508Z,41.40
2023-11-20T17:19:00.194Z,34.70
2023-11-20T17:21:29.123Z,24.53
2023-11-20T17:23:56.986Z,33.37
2023-11-20T17:26:24.785Z,20.23
2023-11-20T17:28:52.353Z,29.65
2023-11-20T17:31:20.163Z,45.28
2023-11-20T17:33:47.823Z,7.38
2023-11-20T17:36:16.590Z,6.40
2023-11-20T17:38:45.614Z,4.45
2023-11-20T17:41:13.205Z,11.98
2023-11-20T17:43:40.831Z,4.65
2023-11-20T17:46:09.049Z,13.52
2023-11-20T17:48:36.727Z,5.88
2023-11-20T17:51:04.676Z,9.00
2023-11-20T17:53:32.228Z,3.28
2023-11-20T17:56:05.260Z,2.63
2023-11-20T17:58:32.911Z,2.85
2023-11-20T18:01:01.234Z,2.60
2023-11-20T18:03:29.054Z,3.38
2023-11-20T18:05:56.845Z,4.72
2023-11-20T18:08:24.470Z,2.90
2023-11-20T18:10:52.075Z,3.08
2023-11-20T18:13:21.105Z,2.95
2023-11-20T18:15:48.811Z,2.70
2023-11-20T18:18:17.683Z,3.70
2023-11-20T18:20:45.493Z,2.70
2023-11-20T18:23:13.050Z,3.20
2023-11-20T18:25:40.672Z,3.03
2023-11-20T18:28:08.846Z,3.03
2023-11-20T18:30:37.758Z,5.65
2023-11-20T18:33:05.431Z,5.90
2023-11-20T18:35:33.861Z,7.40
2023-11-20T18:38:01.395Z,14.93
2023-11-20T18:40:29.038Z,14.57
2023-11-20T18:42:56.599Z,21.40
2023-11-20T18:45:24.198Z,22.85
2023-11-20T18:47:53.139Z,24.60
2023-11-20T18:50:20.810Z,39.67
2023-11-20T18:52:48.363Z,40.53
2023-11-20T18:55:16.379Z,38.57
2023-11-20T18:57:45.402Z,29.88
2023-11-20T19:00:16.330Z,40.87
2023-11-20T19:02:44.468Z,45.83
2023-11-20T19:05:14.494Z,41.03
2023-11-20T19:07:42.275Z,35.25
2023-11-20T19:10:10.973Z,35.13
2023-11-20T19:12:42.538Z,40.70
2023-11-20T19:15:11.204Z,39.17
2023-11-20T19:17:39.097Z,41.57
2023-11-20T19:20:11.559Z,44.47
2023-11-20T19:22:40.602Z,42.93
2023-11-20T19:25:11.863Z,35.90
2023-11-20T19:27:39.907Z,51.57
2023-11-20T19:30:09.571Z,41.90
2023-11-20T19:32:37.979Z,46.70
2023-11-20T19:35:06.371Z,30.97
2023-11-20T19:37:34.006Z,40.83
2023-11-20T19:40:05.747Z,35.83
2023-11-20T19:42:33.338Z,40.73
2023-11-20T19:45:00.934Z,42.97
2023-11-20T19:47:28.566Z,51.80
2023-11-20T19:49:57.417Z,48.03
2023-11-20T19:52:25.154Z,47.63
2023-11-20T19:54:53.509Z,46.00
2023-11-20T19:57:22.386Z,46.83
2023-11-20T19:59:49.949Z,47.13
2023-11-20T20:02:17.545Z,48.43
2023-11-20T20:04:45.209Z,45.27
2023-11-20T20:07:12.873Z,41.17
2023-11-20T20:09:40.465Z,34.03
2023-11-20T20:12:09.510Z,40.30
2023-11-20T20:14:40.004Z,48.05
2023-11-20T20:17:10.806Z,44.80
2023-11-20T20:19:44.711Z,39.60
2023-11-20T20:22:13.167Z,37.03
2023-11-20T20:24:42.717Z,39.38
2023-11-20T20:27:10.298Z,34.83
2023-11-20T20:29:40.251Z,38.00
2023-11-20T20:32:09.274Z,45.70
2023-11-20T20:34:38.038Z,45.97
2023-11-20T20:37:09.106Z,34.83
2023-11-20T20:39:39.847Z,40.53
2023-11-20T20:42:08.763Z,35.13
2023-11-20T20:44:39.707Z,38.40
2023-11-20T20:47:09.101Z,35.87
2023-11-20T20:49:38.848Z,32.33
2023-11-20T20:52:07.318Z,31.17
2023-11-20T20:54:36.117Z,33.17
2023-11-20T20:57:05.172Z,30.77
2023-11-20T20:59:32.814Z,29.70
2023-11-20T21:02:01.893Z,30.00
2023-11-20T21:04:30.031Z,29.40
2023-11-20T21:06:58.220Z,28.80
2023-11-20T21:09:26.162Z,25.40
2023-11-20T21:11:56.887Z,31.13
2023-11-20T21:14:26.837Z,27.93
2023-11-20T21:16:55.715Z,28.43
2023-11-20T21:19:24.877Z,16.45
2023-11-20T21:21:52.910Z,14.23
2023-11-20T21:24:20.495Z,13.47
2023-11-20T21:26:48.278Z,16.50
2023-11-20T21:29:16.087Z,16.63
2023-11-20T21:31:46.499Z,21.27
2023-11-20T21:34:14.371Z,9.60
2023-11-20T21:36:43.290Z,11.97
2023-11-20T21:39:12.815Z,13.83
2023-11-20T21:41:41.084Z,12.60
2023-11-20T21:44:09.044Z,12.63
2023-11-20T21:46:38.856Z,13.27
2023-11-20T21:49:07.025Z,11.50
2023-11-20T21:51:35.138Z,14.00
2023-11-20T21:54:04.800Z,7.93
2023-11-20T21:56:32.354Z,12.77
2023-11-20T21:58:59.902Z,9.40
2023-11-20T22:01:27.511Z,12.10
2023-11-20T22:03:55.580Z,10.90
2023-11-20T22:06:23.194Z,12.13
2023-11-20T22:08:51.418Z,9.47
2023-11-20T22:11:21.084Z,9.80
2023-11-20T22:13:48.865Z,10.67
2023-11-20T22:16:17.592Z,9.70
2023-11-20T22:18:45.844Z,11.27
2023-11-20T22:21:13.603Z,8.70
2023-11-20T22:23:42.146Z,11.00
2023-11-20T22:26:10.105Z,8.77
2023-11-20T22:28:39.352Z,8.57
2023-11-20T22:31:09.025Z,4.73
2023-11-20T22:33:36.797Z,5.27
2023-11-20T22:36:06.503Z,4.10
2023-11-20T22:38:34.540Z,3.17
2023-11-20T22:41:02.970Z,2.90
2023-11-20T22:43:30.789Z,3.73
2023-11-20T22:46:00.440Z,3.33
2023-11-20T22:48:28.046Z,3.17
2023-11-20T22:50:57.030Z,3.60
2023-11-20T22:53:24.799Z,2.87
2023-11-20T22:55:52.415Z,3.20
2023-11-20T22:58:20.043Z,3.20
2023-11-20T23:00:50.421Z,3.53
2023-11-20T23:03:20.753Z,3.17
2023-11-20T23:05:48.656Z,2.93
2023-11-20T23:08:16.400Z,3.03
2023-11-20T23:10:45.216Z,2.90
2023-11-20T23:13:13.673Z,2.50
2023-11-20T23:15:42.067Z,2.47
2023-11-20T23:18:09.837Z,2.27
2023-11-20T23:20:38.918Z,2.40
2023-11-20T23:23:06.471Z,3.13
2023-11-20T23:25:34.053Z,3.00
2023-11-20T23:28:02.243Z,2.53
2023-11-20T23:30:31.402Z,2.20
2023-11-20T23:33:00.453Z,2.30
2023-11-20T23:35:28.338Z,2.93
2023-11-20T23:37:57.295Z,4.20
2023-11-20T23:40:25.448Z,4.47
2023-11-20T23:42:53.321Z,5.27
2023-11-20T23:45:20.965Z,6.30
2023-11-20T23:47:48.571Z,8.40
2023-11-20T23:50:17.708Z,9.77
2023-11-20T23:52:45.451Z,9.13
2023-11-20T23:55:14.855Z,8.17
2023-11-20T23:57:42.753Z,7.57
